sensor_id;sensor_type;location;lat;lon;timestamp;temperature;humidity
5258;DHT22;2651;51.594;9.928;2023-08-30T00:00:07;13.90;1.00
5258;DHT22;2651;51.594;9.928;2023-08-30T00:01:09;13.90;1.00
5258;DHT22;2651;51.594;9.928;2023-08-30T00:02:11;13.90;1.00
5258;DHT22;2651;51.594;9.928;2023-08-30T00:03:13;13.90;99.90
5258;DHT22;2651;51.594;9.928;2023-08-30T00:04:14;13.90;1.00
5258;DHT22;2651;51.594;9.928;2023-08-30T00:05:16;13.90;99.90
5258;DHT22;2651;51.594;9.928;2023-08-30T00:06:18;13.90;99.90
5258;DHT22;2651;51.594;9.928;2023-08-30T00:07:20;13.80;99.90
5258;DHT22;2651;51.594;9.928;2023-08-30T00:08:22;13.80;1.00
5258;DHT22;2651;51.594;9.928;2023-08-30T00:09:23;13.80;70.60
5258;DHT22;2651;51.594;9.928;2023-08-30T00:10:26;13.90;1.00
5258;DHT22;2651;51.594;9.928;2023-08-30T00:11:28;13.90;1.00
5258;DHT22;2651;51.594;9.928;2023-08-30T00:12:31;13.90;43.20
5258;DHT22;2651;51.594;9.928;2023-08-30T00:13:33;13.90;99.90
5258;DHT22;2651;51.594;9.928;2023-08-30T00:14:35;14.00;99.90
5258;DHT22;2651;51.594;9.928;2023-08-30T00:15:37;13.90;1.00
5258;DHT22;2651;51.594;9.928;2023-08-30T00:16:39;13.90;1.00
5258;DHT22;2651;51.594;9.928;2023-08-30T00:17:41;13.90;99.90
5258;DHT22;2651;51.594;9.928;2023-08-30T00:18:43;13.80;99.90
5258;DHT22;2651;51.594;9.928;2023-08-30T00:19:46;13.80;1.00
5258;DHT22;2651;51.594;9.928;2023-08-30T00:20:49;13.80;99.90
5258;DHT22;2651;51.594;9.928;2023-08-30T00:21:51;13.80;99.90
5258;DHT22;2651;51.594;9.928;2023-08-30T00:22:53;13.80;99.90
5258;DHT22;2651;51.594;9.928;2023-08-30T00:23:54;13.80;1.00
5258;DHT22;2651;51.594;9.928;2023-08-30T00:24:56;13.80;85.80
5258;DHT22;2651;51.594;9.928;2023-08-30T00:25:58;13.70;1.00
5258;DHT22;2651;51.594;9.928;2023-08-30T00:27:01;13.70;99.90
5258;DHT22;2651;51.594;9.928;2023-08-30T00:28:03;13.70;99.90
5258;DHT22;2651;51.594;9.928;2023-08-30T00:29:05;13.70;1.00
5258;DHT22;2651;51.594;9.928;2023-08-30T00:30:07;13.70;1.00
5258;DHT22;2651;51.594;9.928;2023-08-30T00:31:10;13.70;1.00
5258;DHT22;2651;51.594;9.928;2023-08-30T00:32:12;13.70;99.90
5258;DHT22;2651;51.594;9.928;2023-08-30T00:33:14;13.70;99.90
5258;DHT22;2651;51.594;9.928;2023-08-30T00:34:16;13.70;1.00
5258;DHT22;2651;51.594;9.928;2023-08-30T00:35:18;13.70;99.90
5258;DHT22;2651;51.594;9.928;2023-08-30T00:36:19;13.70;1.00
5258;DHT22;2651;51.594;9.928;2023-08-30T00:37:23;13.70;99.90
5258;DHT22;2651;51.594;9.928;2023-08-30T00:38:26;13.80;1.00
5258;DHT22;2651;51.594;9.928;2023-08-30T00:39:28;13.70;1.00
5258;DHT22;2651;51.594;9.928;2023-08-30T00:40:38;13.70;1.00
5258;DHT22;2651;51.594;9.928;2023-08-30T00:41:40;13.70;99.90
5258;DHT22;2651;51.594;9.928;2023-08-30T00:42:42;13.60;1.00
5258;DHT22;2651;51.594;9.928;2023-08-30T00:43:44;13.60;99.90
5258;DHT22;2651;51.594;9.928;2023-08-30T00:44:45;13.60;1.00
5258;DHT22;2651;51.594;9.928;2023-08-30T00:45:48;13.50;1.00
5258;DHT22;2651;51.594;9.928;2023-08-30T00:46:50;13.50;99.90
5258;DHT22;2651;51.594;9.928;2023-08-30T00:47:52;13.50;99.90
5258;DHT22;2651;51.594;9.928;2023-08-30T00:48:54;13.50;1.00
5258;DHT22;2651;51.594;9.928;2023-08-30T00:49:56;13.50;99.90
5258;DHT22;2651;51.594;9.928;2023-08-30T00:50:58;13.50;99.90
5258;DHT22;2651;51.594;9.928;2023-08-30T00:52:03;13.50;56.50
5258;DHT22;2651;51.594;9.928;2023-08-30T00:53:07;13.50;99.90
5258;DHT22;2651;51.594;9.928;2023-08-30T00:54:09;13.50;99.90
5258;DHT22;2651;51.594;9.928;2023-08-30T00:55:11;13.40;1.00
5258;DHT22;2651;51.594;9.928;2023-08-30T00:56:12;13.40;99.90
5258;DHT22;2651;51.594;9.928;2023-08-30T00:57:14;13.30;1.00
5258;DHT22;2651;51.594;9.928;2023-08-30T00:58:17;13.30;1.00
5258;DHT22;2651;51.594;9.928;2023-08-30T00:59:19;13.30;1.00
5258;DHT22;2651;51.594;9.928;2023-08-30T01:00:21;13.30;1.00
5258;DHT22;2651;51.594;9.928;2023-08-30T01:01:23;13.30;1.00
5258;DHT22;2651;51.594;9.928;2023-08-30T01:02:24;13.30;1.00
5258;DHT22;2651;51.594;9.928;2023-08-30T01:03:26;13.30;1.00
5258;DHT22;2651;51.594;9.928;2023-08-30T01:04:28;13.30;1.00
5258;DHT22;2651;51.594;9.928;2023-08-30T01:05:30;13.30;1.00
5258;DHT22;2651;51.594;9.928;2023-08-30T01:06:32;13.30;1.00
5258;DHT22;2651;51.594;9.928;2023-08-30T01:07:33;13.30;1.00
5258;DHT22;2651;51.594;9.928;2023-08-30T01:08:36;13.30;1.00
5258;DHT22;2651;51.594;9.928;2023-08-30T01:09:38;13.30;1.00
5258;DHT22;2651;51.594;9.928;2023-08-30T01:11:00;13.30;1.00
5258;DHT22;2651;51.594;9.928;2023-08-30T01:12:22;13.30;1.00
5258;DHT22;2651;51.594;9.928;2023-08-30T01:13:26;13.20;1.00
5258;DHT22;2651;51.594;9.928;2023-08-30T01:14:50;13.30;1.00
5258;DHT22;2651;51.594;9.928;2023-08-30T01:15:54;13.30;1.00
5258;DHT22;2651;51.594;9.928;2023-08-30T01:16:56;13.20;1.00
5258;DHT22;2651;51.594;9.928;2023-08-30T01:17:59;13.20;1.00
5258;DHT22;2651;51.594;9.928;2023-08-30T01:19:11;13.20;1.00
5258;DHT22;2651;51.594;9.928;2023-08-30T01:20:17;13.10;1.00
5258;DHT22;2651;51.594;9.928;2023-08-30T01:21:48;13.00;1.00
5258;DHT22;2651;51.594;9.928;2023-08-30T01:23:06;12.90;1.20
5258;DHT22;2651;51.594;9.928;2023-08-30T01:24:14;12.80;99.90
5258;DHT22;2651;51.594;9.928;2023-08-30T01:25:33;12.70;99.90
5258;DHT22;2651;51.594;9.928;2023-08-30T01:27:08;12.70;99.90
5258;DHT22;2651;51.594;9.928;2023-08-30T01:28:11;12.70;99.90
5258;DHT22;2651;51.594;9.928;2023-08-30T01:29:14;12.70;99.90
5258;DHT22;2651;51.594;9.928;2023-08-30T01:30:18;12.80;99.90
5258;DHT22;2651;51.594;9.928;2023-08-30T01:31:23;12.80;99.90
5258;DHT22;2651;51.594;9.928;2023-08-30T01:32:25;12.80;99.90
5258;DHT22;2651;51.594;9.928;2023-08-30T01:33:31;12.80;99.90
5258;DHT22;2651;51.594;9.928;2023-08-30T01:34:33;12.80;99.90
5258;DHT22;2651;51.594;9.928;2023-08-30T01:35:36;12.90;99.90
5258;DHT22;2651;51.594;9.928;2023-08-30T01:36:39;12.90;99.90
5258;DHT22;2651;51.594;9.928;2023-08-30T01:37:46;12.90;99.90
5258;DHT22;2651;51.594;9.928;2023-08-30T01:38:48;12.90;99.90
5258;DHT22;2651;51.594;9.928;2023-08-30T01:39:52;12.90;99.90
5258;DHT22;2651;51.594;9.928;2023-08-30T01:40:55;12.90;99.90
5258;DHT22;2651;51.594;9.928;2023-08-30T01:41:58;12.80;99.90
5258;DHT22;2651;51.594;9.928;2023-08-30T01:43:02;12.80;99.90
5258;DHT22;2651;51.594;9.928;2023-08-30T01:44:08;12.90;99.90
5258;DHT22;2651;51.594;9.928;2023-08-30T01:45:12;12.90;99.90
5258;DHT22;2651;51.594;9.928;2023-08-30T01:46:16;12.80;99.90
5258;DHT22;2651;51.594;9.928;2023-08-30T01:47:19;12.80;99.90
5258;DHT22;2651;51.594;9.928;2023-08-30T01:48:20;12.80;99.90
5258;DHT22;2651;51.594;9.928;2023-08-30T01:49:23;12.80;99.90
5258;DHT22;2651;51.594;9.928;2023-08-30T01:50:26;12.80;99.90
5258;DHT22;2651;51.594;9.928;2023-08-30T01:51:29;12.70;99.90
5258;DHT22;2651;51.594;9.928;2023-08-30T01:52:32;12.70;99.90
5258;DHT22;2651;51.594;9.928;2023-08-30T01:53:34;12.70;99.90
5258;DHT22;2651;51.594;9.928;2023-08-30T01:54:38;12.60;99.90
5258;DHT22;2651;51.594;9.928;2023-08-30T01:55:41;12.60;99.90
5258;DHT22;2651;51.594;9.928;2023-08-30T01:56:42;12.50;99.90
5258;DHT22;2651;51.594;9.928;2023-08-30T01:57:44;12.50;99.90
5258;DHT22;2651;51.594;9.928;2023-08-30T01:58:46;12.50;99.90
5258;DHT22;2651;51.594;9.928;2023-08-30T01:59:48;12.50;99.90
5258;DHT22;2651;51.594;9.928;2023-08-30T02:00:50;12.60;99.90
5258;DHT22;2651;51.594;9.928;2023-08-30T02:01:51;12.60;99.90
5258;DHT22;2651;51.594;9.928;2023-08-30T02:02:53;12.60;99.90
5258;DHT22;2651;51.594;9.928;2023-08-30T02:03:55;12.60;99.90
5258;DHT22;2651;51.594;9.928;2023-08-30T02:04:57;12.60;99.90
5258;DHT22;2651;51.594;9.928;2023-08-30T02:06:06;12.60;99.90
5258;DHT22;2651;51.594;9.928;2023-08-30T02:07:22;12.60;99.90
5258;DHT22;2651;51.594;9.928;2023-08-30T02:08:37;12.60;99.90
5258;DHT22;2651;51.594;9.928;2023-08-30T02:09:45;12.60;99.90
5258;DHT22;2651;51.594;9.928;2023-08-30T02:10:55;12.70;99.90
5258;DHT22;2651;51.594;9.928;2023-08-30T02:12:00;12.60;99.90
5258;DHT22;2651;51.594;9.928;2023-08-30T02:13:04;12.70;99.90
5258;DHT22;2651;51.594;9.928;2023-08-30T02:14:08;12.60;99.90
5258;DHT22;2651;51.594;9.928;2023-08-30T02:15:12;12.50;99.90
5258;DHT22;2651;51.594;9.928;2023-08-30T02:16:16;12.50;99.90
5258;DHT22;2651;51.594;9.928;2023-08-30T02:17:19;12.50;99.90
5258;DHT22;2651;51.594;9.928;2023-08-30T02:18:23;12.50;99.90
5258;DHT22;2651;51.594;9.928;2023-08-30T02:19:25;12.50;99.90
5258;DHT22;2651;51.594;9.928;2023-08-30T02:20:27;12.50;99.90
5258;DHT22;2651;51.594;9.928;2023-08-30T02:21:29;12.60;99.90
5258;DHT22;2651;51.594;9.928;2023-08-30T02:22:31;12.50;99.90
5258;DHT22;2651;51.594;9.928;2023-08-30T02:23:33;12.50;99.90
5258;DHT22;2651;51.594;9.928;2023-08-30T02:24:34;12.40;99.90
5258;DHT22;2651;51.594;9.928;2023-08-30T02:25:36;12.40;99.90
5258;DHT22;2651;51.594;9.928;2023-08-30T02:26:38;12.40;99.90
5258;DHT22;2651;51.594;9.928;2023-08-30T02:27:39;12.40;99.90
5258;DHT22;2651;51.594;9.928;2023-08-30T02:28:41;12.50;99.90
5258;DHT22;2651;51.594;9.928;2023-08-30T02:29:43;12.40;99.90
5258;DHT22;2651;51.594;9.928;2023-08-30T02:30:45;12.40;99.90
5258;DHT22;2651;51.594;9.928;2023-08-30T02:31:46;12.40;99.90
5258;DHT22;2651;51.594;9.928;2023-08-30T02:32:48;12.50;99.90
5258;DHT22;2651;51.594;9.928;2023-08-30T02:33:50;12.50;99.90
5258;DHT22;2651;51.594;9.928;2023-08-30T02:34:52;12.50;99.90
5258;DHT22;2651;51.594;9.928;2023-08-30T02:35:54;12.50;99.90
5258;DHT22;2651;51.594;9.928;2023-08-30T02:36:56;12.50;99.90
5258;DHT22;2651;51.594;9.928;2023-08-30T02:37:58;12.50;99.90
5258;DHT22;2651;51.594;9.928;2023-08-30T02:38:59;12.50;99.90
5258;DHT22;2651;51.594;9.928;2023-08-30T02:40:01;12.50;99.90
5258;DHT22;2651;51.594;9.928;2023-08-30T02:41:04;12.50;99.90
5258;DHT22;2651;51.594;9.928;2023-08-30T02:42:06;12.50;99.90
5258;DHT22;2651;51.594;9.928;2023-08-30T02:43:07;12.40;99.90
5258;DHT22;2651;51.594;9.928;2023-08-30T02:44:11;12.50;99.90
5258;DHT22;2651;51.594;9.928;2023-08-30T02:45:13;12.50;99.90
5258;DHT22;2651;51.594;9.928;2023-08-30T02:46:14;12.40;99.90
5258;DHT22;2651;51.594;9.928;2023-08-30T02:47:16;12.40;99.90
5258;DHT22;2651;51.594;9.928;2023-08-30T02:48:18;12.30;99.90
5258;DHT22;2651;51.594;9.928;2023-08-30T02:49:19;12.30;99.90
5258;DHT22;2651;51.594;9.928;2023-08-30T02:50:21;12.30;99.90
5258;DHT22;2651;51.594;9.928;2023-08-30T02:51:23;12.30;99.90
5258;DHT22;2651;51.594;9.928;2023-08-30T02:52:25;12.20;99.90
5258;DHT22;2651;51.594;9.928;2023-08-30T02:53:26;12.20;99.90
5258;DHT22;2651;51.594;9.928;2023-08-30T02:54:28;12.20;99.90
5258;DHT22;2651;51.594;9.928;2023-08-30T02:55:30;12.10;99.90
5258;DHT22;2651;51.594;9.928;2023-08-30T02:56:32;12.10;99.90
5258;DHT22;2651;51.594;9.928;2023-08-30T02:57:34;12.10;99.90
5258;DHT22;2651;51.594;9.928;2023-08-30T02:58:36;12.10;99.90
5258;DHT22;2651;51.594;9.928;2023-08-30T02:59:38;12.10;99.90
5258;DHT22;2651;51.594;9.928;2023-08-30T03:00:39;12.10;99.90
5258;DHT22;2651;51.594;9.928;2023-08-30T03:01:41;12.10;99.90
5258;DHT22;2651;51.594;9.928;2023-08-30T03:02:43;12.20;99.90
5258;DHT22;2651;51.594;9.928;2023-08-30T03:03:47;12.20;99.90
5258;DHT22;2651;51.594;9.928;2023-08-30T03:04:49;12.20;99.90
5258;DHT22;2651;51.594;9.928;2023-08-30T03:05:51;12.20;99.90
5258;DHT22;2651;51.594;9.928;2023-08-30T03:06:53;12.20;99.90
5258;DHT22;2651;51.594;9.928;2023-08-30T03:07:54;12.20;99.90
5258;DHT22;2651;51.594;9.928;2023-08-30T03:08:56;12.20;99.90
5258;DHT22;2651;51.594;9.928;2023-08-30T03:09:58;12.20;99.90
5258;DHT22;2651;51.594;9.928;2023-08-30T03:11:12;12.20;99.90
5258;DHT22;2651;51.594;9.928;2023-08-30T03:12:14;12.20;99.90
5258;DHT22;2651;51.594;9.928;2023-08-30T03:13:16;12.20;99.90
5258;DHT22;2651;51.594;9.928;2023-08-30T03:14:18;12.20;99.90
5258;DHT22;2651;51.594;9.928;2023-08-30T03:15:19;12.20;99.90
5258;DHT22;2651;51.594;9.928;2023-08-30T03:16:21;12.20;99.90
5258;DHT22;2651;51.594;9.928;2023-08-30T03:17:23;12.20;99.90
5258;DHT22;2651;51.594;9.928;2023-08-30T03:18:26;12.30;99.90
5258;DHT22;2651;51.594;9.928;2023-08-30T03:19:27;12.30;99.90
5258;DHT22;2651;51.594;9.928;2023-08-30T03:20:29;12.30;99.90
5258;DHT22;2651;51.594;9.928;2023-08-30T03:21:31;12.30;99.90
5258;DHT22;2651;51.594;9.928;2023-08-30T03:22:32;12.30;99.90
5258;DHT22;2651;51.594;9.928;2023-08-30T03:23:35;12.20;99.90
5258;DHT22;2651;51.594;9.928;2023-08-30T03:24:37;12.30;99.90
5258;DHT22;2651;51.594;9.928;2023-08-30T03:25:38;12.30;99.90
5258;DHT22;2651;51.594;9.928;2023-08-30T03:26:42;12.30;99.90
5258;DHT22;2651;51.594;9.928;2023-08-30T03:27:44;12.30;99.90
5258;DHT22;2651;51.594;9.928;2023-08-30T03:28:46;12.30;99.90
5258;DHT22;2651;51.594;9.928;2023-08-30T03:29:47;12.30;99.90
5258;DHT22;2651;51.594;9.928;2023-08-30T03:30:49;12.30;99.90
5258;DHT22;2651;51.594;9.928;2023-08-30T03:31:51;12.30;99.90
5258;DHT22;2651;51.594;9.928;2023-08-30T03:32:53;12.30;99.90
5258;DHT22;2651;51.594;9.928;2023-08-30T03:33:54;12.20;99.90
5258;DHT22;2651;51.594;9.928;2023-08-30T03:34:56;12.10;99.90
5258;DHT22;2651;51.594;9.928;2023-08-30T03:35:58;12.00;99.90
5258;DHT22;2651;51.594;9.928;2023-08-30T03:37:00;12.00;99.90
5258;DHT22;2651;51.594;9.928;2023-08-30T03:38:02;11.90;99.90
5258;DHT22;2651;51.594;9.928;2023-08-30T03:39:04;11.90;99.90
5258;DHT22;2651;51.594;9.928;2023-08-30T03:40:06;11.90;99.90
5258;DHT22;2651;51.594;9.928;2023-08-30T03:41:10;11.90;99.90
5258;DHT22;2651;51.594;9.928;2023-08-30T03:42:12;11.90;99.90
5258;DHT22;2651;51.594;9.928;2023-08-30T03:43:13;11.90;99.90
5258;DHT22;2651;51.594;9.928;2023-08-30T03:44:15;11.90;99.90
5258;DHT22;2651;51.594;9.928;2023-08-30T03:45:17;11.90;99.90
5258;DHT22;2651;51.594;9.928;2023-08-30T03:46:19;11.90;99.90
5258;DHT22;2651;51.594;9.928;2023-08-30T03:47:20;11.90;99.90
5258;DHT22;2651;51.594;9.928;2023-08-30T03:48:22;11.90;99.90
5258;DHT22;2651;51.594;9.928;2023-08-30T03:49:24;11.90;99.90
5258;DHT22;2651;51.594;9.928;2023-08-30T03:50:25;11.80;99.90
5258;DHT22;2651;51.594;9.928;2023-08-30T03:51:27;11.80;99.90
5258;DHT22;2651;51.594;9.928;2023-08-30T03:52:29;11.90;99.90
5258;DHT22;2651;51.594;9.928;2023-08-30T03:53:30;11.90;99.90
5258;DHT22;2651;51.594;9.928;2023-08-30T03:54:32;11.80;99.90
5258;DHT22;2651;51.594;9.928;2023-08-30T03:55:34;11.80;99.90
5258;DHT22;2651;51.594;9.928;2023-08-30T03:56:35;11.80;99.90
5258;DHT22;2651;51.594;9.928;2023-08-30T03:57:37;11.90;99.90
5258;DHT22;2651;51.594;9.928;2023-08-30T03:58:39;11.90;99.90
5258;DHT22;2651;51.594;9.928;2023-08-30T03:59:41;11.90;99.90
5258;DHT22;2651;51.594;9.928;2023-08-30T04:00:42;11.90;99.90
5258;DHT22;2651;51.594;9.928;2023-08-30T04:01:44;11.90;99.90
5258;DHT22;2651;51.594;9.928;2023-08-30T04:02:46;11.90;99.90
5258;DHT22;2651;51.594;9.928;2023-08-30T04:03:48;11.90;99.90
5258;DHT22;2651;51.594;9.928;2023-08-30T04:04:50;11.90;99.90
5258;DHT22;2651;51.594;9.928;2023-08-30T04:05:55;11.90;99.90
5258;DHT22;2651;51.594;9.928;2023-08-30T04:06:58;11.90;99.90
5258;DHT22;2651;51.594;9.928;2023-08-30T04:08:01;11.90;99.90
5258;DHT22;2651;51.594;9.928;2023-08-30T04:09:03;12.00;99.90
5258;DHT22;2651;51.594;9.928;2023-08-30T04:10:05;12.00;99.90
5258;DHT22;2651;51.594;9.928;2023-08-30T04:11:08;11.90;99.90
5258;DHT22;2651;51.594;9.928;2023-08-30T04:12:10;11.90;99.90
5258;DHT22;2651;51.594;9.928;2023-08-30T04:13:12;11.80;99.90
5258;DHT22;2651;51.594;9.928;2023-08-30T04:14:13;11.80;99.90
5258;DHT22;2651;51.594;9.928;2023-08-30T04:15:15;11.90;99.90
5258;DHT22;2651;51.594;9.928;2023-08-30T04:16:17;11.80;99.90
5258;DHT22;2651;51.594;9.928;2023-08-30T04:17:18;11.80;99.90
5258;DHT22;2651;51.594;9.928;2023-08-30T04:18:31;11.90;99.90
5258;DHT22;2651;51.594;9.928;2023-08-30T04:19:33;11.90;99.90
5258;DHT22;2651;51.594;9.928;2023-08-30T04:20:34;12.00;99.90
5258;DHT22;2651;51.594;9.928;2023-08-30T04:21:36;12.00;99.90
5258;DHT22;2651;51.594;9.928;2023-08-30T04:22:38;12.00;99.90
5258;DHT22;2651;51.594;9.928;2023-08-30T04:23:40;12.00;99.90
5258;DHT22;2651;51.594;9.928;2023-08-30T04:24:41;12.00;99.90
5258;DHT22;2651;51.594;9.928;2023-08-30T04:25:44;12.00;99.90
5258;DHT22;2651;51.594;9.928;2023-08-30T04:26:46;11.90;99.90
5258;DHT22;2651;51.594;9.928;2023-08-30T04:27:51;11.90;99.90
5258;DHT22;2651;51.594;9.928;2023-08-30T04:28:53;11.90;99.90
5258;DHT22;2651;51.594;9.928;2023-08-30T04:29:54;11.90;99.90
5258;DHT22;2651;51.594;9.928;2023-08-30T04:30:56;12.00;99.90
5258;DHT22;2651;51.594;9.928;2023-08-30T04:31:58;11.90;99.90
5258;DHT22;2651;51.594;9.928;2023-08-30T04:33:00;11.90;99.90
5258;DHT22;2651;51.594;9.928;2023-08-30T04:34:04;12.00;99.90
5258;DHT22;2651;51.594;9.928;2023-08-30T04:35:06;12.00;99.90
5258;DHT22;2651;51.594;9.928;2023-08-30T04:36:12;12.00;99.90
5258;DHT22;2651;51.594;9.928;2023-08-30T04:37:13;12.00;99.90
5258;DHT22;2651;51.594;9.928;2023-08-30T04:38:15;12.10;99.90
5258;DHT22;2651;51.594;9.928;2023-08-30T04:39:17;12.10;99.90
5258;DHT22;2651;51.594;9.928;2023-08-30T04:40:19;12.10;99.90
5258;DHT22;2651;51.594;9.928;2023-08-30T04:41:20;12.20;99.90
5258;DHT22;2651;51.594;9.928;2023-08-30T04:42:22;12.20;99.90
5258;DHT22;2651;51.594;9.928;2023-08-30T04:43:24;12.30;99.90
5258;DHT22;2651;51.594;9.928;2023-08-30T04:44:25;12.30;99.90
5258;DHT22;2651;51.594;9.928;2023-08-30T04:45:29;12.30;99.90
5258;DHT22;2651;51.594;9.928;2023-08-30T04:46:31;12.30;99.90
5258;DHT22;2651;51.594;9.928;2023-08-30T04:47:33;12.30;99.90
5258;DHT22;2651;51.594;9.928;2023-08-30T04:48:35;12.40;99.90
5258;DHT22;2651;51.594;9.928;2023-08-30T04:49:37;12.40;99.90
5258;DHT22;2651;51.594;9.928;2023-08-30T04:50:38;12.40;99.90
5258;DHT22;2651;51.594;9.928;2023-08-30T04:51:40;12.40;99.90
5258;DHT22;2651;51.594;9.928;2023-08-30T04:52:42;12.40;99.90
5258;DHT22;2651;51.594;9.928;2023-08-30T04:53:44;12.40;99.90
5258;DHT22;2651;51.594;9.928;2023-08-30T04:54:45;12.50;99.90
5258;DHT22;2651;51.594;9.928;2023-08-30T04:55:47;12.50;99.90
5258;DHT22;2651;51.594;9.928;2023-08-30T04:56:49;12.50;99.90
5258;DHT22;2651;51.594;9.928;2023-08-30T04:57:51;12.50;99.90
5258;DHT22;2651;51.594;9.928;2023-08-30T04:58:52;12.40;99.90
5258;DHT22;2651;51.594;9.928;2023-08-30T04:59:55;12.40;99.90
5258;DHT22;2651;51.594;9.928;2023-08-30T05:00:56;12.30;99.90
5258;DHT22;2651;51.594;9.928;2023-08-30T05:01:59;12.20;99.90
5258;DHT22;2651;51.594;9.928;2023-08-30T05:03:00;12.10;99.90
5258;DHT22;2651;51.594;9.928;2023-08-30T05:04:02;12.00;99.90
5258;DHT22;2651;51.594;9.928;2023-08-30T05:05:05;12.00;99.90
5258;DHT22;2651;51.594;9.928;2023-08-30T05:06:07;12.00;99.90
5258;DHT22;2651;51.594;9.928;2023-08-30T05:07:08;12.00;99.90
5258;DHT22;2651;51.594;9.928;2023-08-30T05:08:10;12.00;99.90
5258;DHT22;2651;51.594;9.928;2023-08-30T05:09:13;12.00;99.90
5258;DHT22;2651;51.594;9.928;2023-08-30T05:10:15;12.00;99.90
5258;DHT22;2651;51.594;9.928;2023-08-30T05:11:17;12.10;99.90
5258;DHT22;2651;51.594;9.928;2023-08-30T05:12:19;12.10;99.90
5258;DHT22;2651;51.594;9.928;2023-08-30T05:13:21;12.10;99.90
5258;DHT22;2651;51.594;9.928;2023-08-30T05:14:22;12.10;99.90
5258;DHT22;2651;51.594;9.928;2023-08-30T05:15:24;12.00;99.90
5258;DHT22;2651;51.594;9.928;2023-08-30T05:16:26;12.00;99.90
5258;DHT22;2651;51.594;9.928;2023-08-30T05:17:27;12.10;99.90
5258;DHT22;2651;51.594;9.928;2023-08-30T05:18:30;12.10;99.90
5258;DHT22;2651;51.594;9.928;2023-08-30T05:19:31;12.20;99.90
5258;DHT22;2651;51.594;9.928;2023-08-30T05:20:33;12.30;99.90
5258;DHT22;2651;51.594;9.928;2023-08-30T05:21:35;12.30;99.90
5258;DHT22;2651;51.594;9.928;2023-08-30T05:22:37;12.30;99.90
5258;DHT22;2651;51.594;9.928;2023-08-30T05:23:39;12.30;99.90
5258;DHT22;2651;51.594;9.928;2023-08-30T05:24:43;12.40;99.90
5258;DHT22;2651;51.594;9.928;2023-08-30T05:25:45;12.40;99.90
5258;DHT22;2651;51.594;9.928;2023-08-30T05:26:48;12.40;99.90
5258;DHT22;2651;51.594;9.928;2023-08-30T05:27:50;12.40;99.90
5258;DHT22;2651;51.594;9.928;2023-08-30T05:28:51;12.50;99.90
5258;DHT22;2651;51.594;9.928;2023-08-30T05:29:53;12.50;99.90
5258;DHT22;2651;51.594;9.928;2023-08-30T05:30:57;12.60;99.90
5258;DHT22;2651;51.594;9.928;2023-08-30T05:31:59;12.60;99.90
5258;DHT22;2651;51.594;9.928;2023-08-30T05:33:00;12.70;99.90
5258;DHT22;2651;51.594;9.928;2023-08-30T05:34:02;12.70;99.90
5258;DHT22;2651;51.594;9.928;2023-08-30T05:35:04;12.80;99.90
5258;DHT22;2651;51.594;9.928;2023-08-30T05:36:06;12.80;99.90
5258;DHT22;2651;51.594;9.928;2023-08-30T05:37:08;12.80;99.90
5258;DHT22;2651;51.594;9.928;2023-08-30T05:38:09;12.90;99.90
5258;DHT22;2651;51.594;9.928;2023-08-30T05:39:12;12.90;99.90
5258;DHT22;2651;51.594;9.928;2023-08-30T05:40:13;12.90;99.90
5258;DHT22;2651;51.594;9.928;2023-08-30T05:41:18;13.00;99.90
5258;DHT22;2651;51.594;9.928;2023-08-30T05:42:20;13.10;99.90
5258;DHT22;2651;51.594;9.928;2023-08-30T05:43:22;13.10;99.90
5258;DHT22;2651;51.594;9.928;2023-08-30T05:44:23;13.10;99.90
5258;DHT22;2651;51.594;9.928;2023-08-30T05:45:25;13.20;99.90
5258;DHT22;2651;51.594;9.928;2023-08-30T05:46:27;13.20;99.90
5258;DHT22;2651;51.594;9.928;2023-08-30T05:47:28;13.30;99.90
5258;DHT22;2651;51.594;9.928;2023-08-30T05:48:30;13.30;99.90
5258;DHT22;2651;51.594;9.928;2023-08-30T05:49:32;13.30;99.90
5258;DHT22;2651;51.594;9.928;2023-08-30T05:50:34;13.30;99.90
5258;DHT22;2651;51.594;9.928;2023-08-30T05:51:36;13.30;99.90
5258;DHT22;2651;51.594;9.928;2023-08-30T05:52:37;13.40;99.90
5258;DHT22;2651;51.594;9.928;2023-08-30T05:53:42;13.40;99.90
5258;DHT22;2651;51.594;9.928;2023-08-30T05:54:44;13.40;99.90
5258;DHT22;2651;51.594;9.928;2023-08-30T05:55:46;13.40;99.90
5258;DHT22;2651;51.594;9.928;2023-08-30T05:56:48;13.40;99.90
5258;DHT22;2651;51.594;9.928;2023-08-30T05:57:49;13.40;99.90
5258;DHT22;2651;51.594;9.928;2023-08-30T05:58:51;13.40;99.90
5258;DHT22;2651;51.594;9.928;2023-08-30T05:59:53;13.30;99.90
5258;DHT22;2651;51.594;9.928;2023-08-30T06:00:56;13.30;99.90
5258;DHT22;2651;51.594;9.928;2023-08-30T06:01:58;13.40;99.90
5258;DHT22;2651;51.594;9.928;2023-08-30T06:02:59;13.40;99.90
5258;DHT22;2651;51.594;9.928;2023-08-30T06:04:01;13.40;99.90
5258;DHT22;2651;51.594;9.928;2023-08-30T06:05:03;13.30;99.90
5258;DHT22;2651;51.594;9.928;2023-08-30T06:06:05;13.30;99.90
5258;DHT22;2651;51.594;9.928;2023-08-30T06:07:06;13.40;99.90
5258;DHT22;2651;51.594;9.928;2023-08-30T06:08:09;13.40;99.90
5258;DHT22;2651;51.594;9.928;2023-08-30T06:09:12;13.40;99.90
5258;DHT22;2651;51.594;9.928;2023-08-30T06:10:16;13.40;99.90
5258;DHT22;2651;51.594;9.928;2023-08-30T06:11:18;13.40;99.90
5258;DHT22;2651;51.594;9.928;2023-08-30T06:12:20;13.50;99.90
5258;DHT22;2651;51.594;9.928;2023-08-30T06:13:22;13.50;99.90
5258;DHT22;2651;51.594;9.928;2023-08-30T06:14:25;13.60;99.90
5258;DHT22;2651;51.594;9.928;2023-08-30T06:15:27;13.60;99.90
5258;DHT22;2651;51.594;9.928;2023-08-30T06:16:29;13.60;99.90
5258;DHT22;2651;51.594;9.928;2023-08-30T06:17:31;13.60;99.90
5258;DHT22;2651;51.594;9.928;2023-08-30T06:18:32;13.60;99.90
5258;DHT22;2651;51.594;9.928;2023-08-30T06:19:34;13.60;99.90
5258;DHT22;2651;51.594;9.928;2023-08-30T06:20:40;13.60;99.90
5258;DHT22;2651;51.594;9.928;2023-08-30T06:21:42;13.70;99.90
5258;DHT22;2651;51.594;9.928;2023-08-30T06:22:43;13.70;99.90
5258;DHT22;2651;51.594;9.928;2023-08-30T06:23:46;13.70;99.90
5258;DHT22;2651;51.594;9.928;2023-08-30T06:24:48;13.80;99.90
5258;DHT22;2651;51.594;9.928;2023-08-30T06:25:56;13.80;99.90
5258;DHT22;2651;51.594;9.928;2023-08-30T06:26:58;13.80;99.90
5258;DHT22;2651;51.594;9.928;2023-08-30T06:28:01;13.90;99.90
5258;DHT22;2651;51.594;9.928;2023-08-30T06:29:04;13.90;99.90
5258;DHT22;2651;51.594;9.928;2023-08-30T06:30:06;13.90;99.90
5258;DHT22;2651;51.594;9.928;2023-08-30T06:31:09;13.90;99.90
5258;DHT22;2651;51.594;9.928;2023-08-30T06:32:10;14.00;99.90
5258;DHT22;2651;51.594;9.928;2023-08-30T06:33:12;14.00;99.90
5258;DHT22;2651;51.594;9.928;2023-08-30T06:34:14;14.10;99.90
5258;DHT22;2651;51.594;9.928;2023-08-30T06:35:15;14.10;99.90
5258;DHT22;2651;51.594;9.928;2023-08-30T06:36:17;14.10;99.90
5258;DHT22;2651;51.594;9.928;2023-08-30T06:37:19;14.20;99.90
5258;DHT22;2651;51.594;9.928;2023-08-30T06:38:21;14.10;99.90
5258;DHT22;2651;51.594;9.928;2023-08-30T06:39:23;14.10;99.90
5258;DHT22;2651;51.594;9.928;2023-08-30T06:40:24;14.10;99.90
5258;DHT22;2651;51.594;9.928;2023-08-30T06:41:26;14.20;99.90
5258;DHT22;2651;51.594;9.928;2023-08-30T06:42:28;14.20;99.90
5258;DHT22;2651;51.594;9.928;2023-08-30T06:43:30;14.20;99.90
5258;DHT22;2651;51.594;9.928;2023-08-30T06:44:31;14.20;99.90
5258;DHT22;2651;51.594;9.928;2023-08-30T06:45:33;14.30;99.90
5258;DHT22;2651;51.594;9.928;2023-08-30T06:46:35;14.40;99.90
5258;DHT22;2651;51.594;9.928;2023-08-30T06:47:37;14.40;99.90
5258;DHT22;2651;51.594;9.928;2023-08-30T06:48:38;14.40;99.90
5258;DHT22;2651;51.594;9.928;2023-08-30T06:49:41;14.50;99.90
5258;DHT22;2651;51.594;9.928;2023-08-30T06:50:42;14.50;86.10